sensor_id;sensor_type;location;lat;lon;timestamp;pressure;altitude;pressure_sealevel;temperature;humidity
36748;BME280;22716;51.556;5.080;2024-03-23T00:53:50;100440.91;;;7.93;100.00
36748;BME280;22716;51.556;5.080;2024-03-23T00:56:16;100433.16;;;7.83;100.00
36748;BME280;22716;51.556;5.080;2024-03-23T00:58:42;100431.41;;;7.81;100.00
36748;BME280;22716;51.556;5.080;2024-03-23T01:01:09;100425.34;;;7.80;100.00
36748;BME280;22716;51.556;5.080;2024-03-23T01:03:34;100419.28;;;7.77;100.00
36748;BME280;22716;51.556;5.080;2024-03-23T01:06:01;100413.13;;;7.84;100.00
36748;BME280;22716;51.556;5.080;2024-03-23T01:08:27;100397.50;;;7.81;100.00
36748;BME280;22716;51.556;5.080;2024-03-23T01:10:56;100401.00;;;7.77;100.00
36748;BME280;22716;51.556;5.080;2024-03-23T01:13:21;100400.13;;;7.78;100.00
36748;BME280;22716;51.556;5.080;2024-03-23T01:15:48;100396.66;;;7.79;100.00
36748;BME280;22716;51.556;5.080;2024-03-23T01:18:14;100403.66;;;7.74;100.00
36748;BME280;22716;51.556;5.080;2024-03-23T01:20:41;100398.47;;;7.68;100.00
36748;BME280;22716;51.556;5.080;2024-03-23T01:23:06;100386.31;;;7.65;100.00
36748;BME280;22716;51.556;5.080;2024-03-23T01:25:33;100386.22;;;7.76;100.00
36748;BME280;22716;51.556;5.080;2024-03-23T01:28:00;100380.22;;;7.68;100.00
36748;BME280;22716;51.556;5.080;2024-03-23T01:30:26;100395.84;;;7.68;100.00
36748;BME280;22716;51.556;5.080;2024-03-23T01:32:52;100395.00;;;7.64;100.00
36748;BME280;22716;51.556;5.080;2024-03-23T01:35:19;100393.28;;;7.60;100.00
36748;BME280;22716;51.556;5.080;2024-03-23T01:37:44;100394.19;;;7.53;100.00
36748;BME280;22716;51.556;5.080;2024-03-23T01:40:12;100395.97;;;7.47;100.00
36748;BME280;22716;51.556;5.080;2024-03-23T01:42:38;100385.53;;;7.44;100.00
36748;BME280;22716;51.556;5.080;2024-03-23T01:45:08;100375.19;;;7.33;100.00
36748;BME280;22716;51.556;5.080;2024-03-23T01:47:34;100363.91;;;7.32;100.00
36748;BME280;22716;51.556;5.080;2024-03-23T01:50:00;100373.41;;;7.43;100.00
36748;BME280;22716;51.556;5.080;2024-03-23T01:52:26;100362.09;;;7.44;100.00
36748;BME280;22716;51.556;5.080;2024-03-23T01:54:53;100346.47;;;7.41;100.00
36748;BME280;22716;51.556;5.080;2024-03-23T01:57:19;100342.13;;;7.41;100.00
36748;BME280;22716;51.556;5.080;2024-03-23T01:59:46;100338.66;;;7.42;100.00
36748;BME280;22716;51.556;5.080;2024-03-23T02:02:13;100330.78;;;7.47;100.00
36748;BME280;22716;51.556;5.080;2024-03-23T02:04:43;100336.84;;;7.49;100.00
36748;BME280;22716;51.556;5.080;2024-03-23T02:07:08;100345.59;;;7.45;100.00
36748;BME280;22716;51.556;5.080;2024-03-23T02:09:35;100319.56;;;7.34;100.00
36748;BME280;22716;51.556;5.080;2024-03-23T02:12:02;100337.78;;;7.42;100.00
36748;BME280;22716;51.556;5.080;2024-03-23T02:14:28;100334.25;;;7.46;100.00
36748;BME280;22716;51.556;5.080;2024-03-23T02:16:54;100332.53;;;7.51;100.00
36748;BME280;22716;51.556;5.080;2024-03-23T02:19:22;100333.38;;;7.54;100.00
36748;BME280;22716;51.556;5.080;2024-03-23T02:21:48;100330.78;;;7.51;100.00
36748;BME280;22716;51.556;5.080;2024-03-23T02:24:15;100336.00;;;7.51;100.00
36748;BME280;22716;51.556;5.080;2024-03-23T02:26:41;100334.22;;;7.52;100.00
36748;BME280;22716;51.556;5.080;2024-03-23T02:29:07;100331.63;;;7.52;100.00
36748;BME280;22716;51.556;5.080;2024-03-23T02:31:34;100334.22;;;7.52;100.00
36748;BME280;22716;51.556;5.080;2024-03-23T02:34:01;100343.81;;;7.50;100.00
36748;BME280;22716;51.556;5.080;2024-03-23T02:36:26;100331.66;;;7.46;100.00
36748;BME280;22716;51.556;5.080;2024-03-23T02:38:53;100343.84;;;7.44;100.00
36748;BME280;22716;51.556;5.080;2024-03-23T02:41:20;100340.38;;;7.42;100.00
36748;BME280;22716;51.556;5.080;2024-03-23T02:43:49;100337.81;;;7.31;100.00
36748;BME280;22716;51.556;5.080;2024-03-23T02:46:15;100341.31;;;7.31;100.00
36748;BME280;22716;51.556;5.080;2024-03-23T02:48:41;100332.69;;;7.25;100.00
36748;BME280;22716;51.556;5.080;2024-03-23T02:51:07;100334.44;;;7.21;100.00
36748;BME280;22716;51.556;5.080;2024-03-23T02:53:33;100340.53;;;7.19;100.00
36748;BME280;22716;51.556;5.080;2024-03-23T02:55:59;100340.53;;;7.14;100.00
36748;BME280;22716;51.556;5.080;2024-03-23T02:58:27;100343.16;;;7.08;100.00
36748;BME280;22716;51.556;5.080;2024-03-23T03:00:52;100342.28;;;7.08;100.00
36748;BME280;22716;51.556;5.080;2024-03-23T03:03:19;100337.13;;;7.00;100.00
36748;BME280;22716;51.556;5.080;2024-03-23T03:05:44;100336.25;;;6.94;100.00
36748;BME280;22716;51.556;5.080;2024-03-23T03:08:11;100332.81;;;6.87;100.00
36748;BME280;22716;51.556;5.080;2024-03-23T03:10:37;100339.78;;;6.85;100.00
36748;BME280;22716;51.556;5.080;2024-03-23T03:13:03;100338.03;;;6.84;100.00
36748;BME280;22716;51.556;5.080;2024-03-23T03:15:30;100338.91;;;6.85;100.00
36748;BME280;22716;51.556;5.080;2024-03-23T03:17:57;100338.91;;;6.86;100.00
36748;BME280;22716;51.556;5.080;2024-03-23T03:20:22;100338.91;;;6.86;100.00
36748;BME280;22716;51.556;5.080;2024-03-23T03:22:49;100336.31;;;6.89;100.00
36748;BME280;22716;51.556;5.080;2024-03-23T03:25:15;100339.78;;;6.85;100.00
36748;BME280;22716;51.556;5.080;2024-03-23T03:27:41;100334.59;;;6.84;100.00
36748;BME280;22716;51.556;5.080;2024-03-23T03:30:07;100327.66;;;6.75;100.00
36748;BME280;22716;51.556;5.080;2024-03-23T03:32:35;100328.50;;;6.78;100.00
36748;BME280;22716;51.556;5.080;2024-03-23T03:35:01;100334.59;;;6.73;100.00
36748;BME280;22716;51.556;5.080;2024-03-23T03:37:28;100330.28;;;6.67;100.00
36748;BME280;22716;51.556;5.080;2024-03-23T03:39:54;100337.22;;;6.64;100.00
36748;BME280;22716;51.556;5.080;2024-03-23T03:42:20;100322.50;;;6.57;100.00
36748;BME280;22716;51.556;5.080;2024-03-23T03:44:46;100329.41;;;6.64;100.00
36748;BME280;22716;51.556;5.080;2024-03-23T03:47:12;100326.81;;;6.58;100.00
36748;BME280;22716;51.556;5.080;2024-03-23T03:49:39;100325.13;;;6.49;100.00
36748;BME280;22716;51.556;5.080;2024-03-23T03:52:06;100317.34;;;6.45;100.00
36748;BME280;22716;51.556;5.080;2024-03-23T03:54:32;100315.59;;;6.42;100.00
36748;BME280;22716;51.556;5.080;2024-03-23T03:56:59;100312.13;;;6.36;100.00
36748;BME280;22716;51.556;5.080;2024-03-23T03:59:24;100282.69;;;6.18;100.00
36748;BME280;22716;51.556;5.080;2024-03-23T04:01:51;100319.06;;;6.44;100.00
36748;BME280;22716;51.556;5.080;2024-03-23T04:04:17;100307.81;;;6.42;100.00
36748;BME280;22716;51.556;5.080;2024-03-23T04:06:44;100302.59;;;6.41;100.00
36748;BME280;22716;51.556;5.080;2024-03-23T04:09:10;100300.84;;;6.44;100.00
36748;BME280;22716;51.556;5.080;2024-03-23T04:11:36;100302.59;;;6.41;100.00
36748;BME280;22716;51.556;5.080;2024-03-23T04:14:02;100307.81;;;6.36;100.00
36748;BME280;22716;51.556;5.080;2024-03-23T04:16:29;100300.88;;;6.35;100.00
36748;BME280;22716;51.556;5.080;2024-03-23T04:18:55;100316.47;;;6.35;100.00
36748;BME280;22716;51.556;5.080;2024-03-23T04:21:22;100298.28;;;6.22;100.00
36748;BME280;22716;51.556;5.080;2024-03-23T04:23:49;100319.97;;;6.27;100.00
36748;BME280;22716;51.556;5.080;2024-03-23T04:26:15;100317.34;;;6.27;100.00
36748;BME280;22716;51.556;5.080;2024-03-23T04:28:41;100315.63;;;6.19;100.00
36748;BME280;22716;51.556;5.080;2024-03-23T04:31:08;100313.03;;;6.16;100.00
36748;BME280;22716;51.556;5.080;2024-03-23T04:33:34;100316.50;;;6.17;100.00
36748;BME280;22716;51.556;5.080;2024-03-23T04:36:00;100321.72;;;6.18;100.00
36748;BME280;22716;51.556;5.080;2024-03-23T04:38:26;100303.50;;;6.12;100.00
36748;BME280;22716;51.556;5.080;2024-03-23T04:40:58;100314.75;;;6.14;100.00
36748;BME280;22716;51.556;5.080;2024-03-23T04:43:26;100306.97;;;6.17;100.00
36748;BME280;22716;51.556;5.080;2024-03-23T04:45:52;100296.56;;;6.14;100.00
36748;BME280;22716;51.556;5.080;2024-03-23T04:48:20;100299.19;;;6.16;100.00
36748;BME280;22716;51.556;5.080;2024-03-23T04:50:46;100287.03;;;6.13;100.00
36748;BME280;22716;51.556;5.080;2024-03-23T04:53:13;100288.78;;;6.10;100.00
36748;BME280;22716;51.556;5.080;2024-03-23T04:55:39;100295.69;;;6.20;100.00
36748;BME280;22716;51.556;5.080;2024-03-23T04:58:07;100300.00;;;6.19;100.00
36748;BME280;22716;51.556;5.080;2024-03-23T05:00:32;100290.50;;;6.15;100.00
36748;BME280;22716;51.556;5.080;2024-03-23T05:02:59;100306.09;;;6.17;100.00
36748;BME280;22716;51.556;5.080;2024-03-23T05:05:25;100308.72;;;6.15;100.00
36748;BME280;22716;51.556;5.080;2024-03-23T05:07:51;100301.75;;;6.14;100.00
36748;BME280;22716;51.556;5.080;2024-03-23T05:10:18;100307.84;;;6.13;100.00
36748;BME280;22716;51.556;5.080;2024-03-23T05:12:43;100306.97;;;6.14;100.00
36748;BME280;22716;51.556;5.080;2024-03-23T05:15:12;100300.03;;;6.09;100.00
36748;BME280;22716;51.556;5.080;2024-03-23T05:17:38;100306.09;;;6.09;100.00
36748;BME280;22716;51.556;5.080;2024-03-23T05:20:05;100300.91;;;6.09;100.00
36748;BME280;22716;51.556;5.080;2024-03-23T05:22:35;100306.09;;;6.06;100.00
36748;BME280;22716;51.556;5.080;2024-03-23T05:25:01;100295.72;;;6.06;100.00
36748;BME280;22716;51.556;5.080;2024-03-23T05:27:31;100296.59;;;6.04;100.00
36748;BME280;22716;51.556;5.080;2024-03-23T05:29:58;100292.25;;;6.01;100.00
36748;BME280;22716;51.556;5.080;2024-03-23T05:32:25;100307.84;;;6.03;100.00
36748;BME280;22716;51.556;5.080;2024-03-23T05:34:51;100271.41;;;5.80;100.00
36748;BME280;22716;51.556;5.080;2024-03-23T05:37:21;100306.97;;;5.95;100.00
36748;BME280;22716;51.556;5.080;2024-03-23T05:39:47;100294.84;;;5.94;100.00
36748;BME280;22716;51.556;5.080;2024-03-23T05:42:15;100307.84;;;5.95;100.00
36748;BME280;22716;51.556;5.080;2024-03-23T05:44:43;100299.16;;;5.93;100.00
36748;BME280;22716;51.556;5.080;2024-03-23T05:47:08;100295.72;;;5.94;100.00
36748;BME280;22716;51.556;5.080;2024-03-23T05:49:37;100299.19;;;6.01;100.00
36748;BME280;22716;51.556;5.080;2024-03-23T05:52:03;100290.50;;;6.05;100.00
36748;BME280;22716;51.556;5.080;2024-03-23T05:54:29;100303.50;;;6.03;100.00
36748;BME280;22716;51.556;5.080;2024-03-23T05:56:55;100302.66;;;6.01;100.00
36748;BME280;22716;51.556;5.080;2024-03-23T05:59:22;100298.28;;;6.05;100.00
36748;BME280;22716;51.556;5.080;2024-03-23T06:01:48;100308.72;;;6.03;100.00
36748;BME280;22716;51.556;5.080;2024-03-23T06:04:14;100316.50;;;6.05;100.00
36748;BME280;22716;51.556;5.080;2024-03-23T06:06:41;100311.31;;;6.12;100.00
36748;BME280;22716;51.556;5.080;2024-03-23T06:09:07;100308.72;;;6.12;100.00
36748;BME280;22716;51.556;5.080;2024-03-23T06:11:33;100306.97;;;6.13;100.00
36748;BME280;22716;51.556;5.080;2024-03-23T06:14:00;100313.03;;;6.16;100.00
36748;BME280;22716;51.556;5.080;2024-03-23T06:16:25;100326.03;;;6.16;100.00
36748;BME280;22716;51.556;5.080;2024-03-23T06:18:53;100313.91;;;6.15;100.00
36748;BME280;22716;51.556;5.080;2024-03-23T06:21:20;100304.38;;;6.13;100.00
36748;BME280;22716;51.556;5.080;2024-03-23T06:23:51;100319.09;;;6.18;100.00
36748;BME280;22716;51.556;5.080;2024-03-23T06:26:17;100319.09;;;6.18;100.00
36748;BME280;22716;51.556;5.080;2024-03-23T06:28:44;100318.22;;;6.24;100.00
36748;BME280;22716;51.556;5.080;2024-03-23T06:31:10;100311.28;;;6.29;100.00
36748;BME280;22716;51.556;5.080;2024-03-23T06:33:37;100299.16;;;6.28;100.00
36748;BME280;22716;51.556;5.080;2024-03-23T06:36:03;100310.44;;;6.27;100.00
36748;BME280;22716;51.556;5.080;2024-03-23T06:38:30;100305.22;;;6.22;100.00
36748;BME280;22716;51.556;5.080;2024-03-23T06:40:56;100313.00;;;6.26;100.00
36748;BME280;22716;51.556;5.080;2024-03-23T06:43:23;100305.22;;;6.26;100.00
36748;BME280;22716;51.556;5.080;2024-03-23T06:45:52;100310.41;;;6.29;100.00
36748;BME280;22716;51.556;5.080;2024-03-23T06:48:19;100319.09;;;6.32;100.00
36748;BME280;22716;51.556;5.080;2024-03-23T06:50:44;100322.56;;;6.33;100.00
36748;BME280;22716;51.556;5.080;2024-03-23T06:53:11;100330.34;;;6.42;100.00
36748;BME280;22716;51.556;5.080;2024-03-23T06:55:37;100318.22;;;6.42;100.00
36748;BME280;22716;51.556;5.080;2024-03-23T06:58:05;100319.09;;;6.37;100.00
36748;BME280;22716;51.556;5.080;2024-03-23T07:00:30;100325.16;;;6.39;100.00
36748;BME280;22716;51.556;5.080;2024-03-23T07:02:57;100319.09;;;6.37;100.00
36748;BME280;22716;51.556;5.080;2024-03-23T07:05:23;100322.50;;;6.49;100.00
36748;BME280;22716;51.556;5.080;2024-03-23T07:07:49;100329.41;;;6.68;100.00
36748;BME280;22716;51.556;5.080;2024-03-23T07:10:15;100328.50;;;6.83;100.00
36748;BME280;22716;51.556;5.080;2024-03-23T07:12:42;100330.19;;;6.93;100.00
36748;BME280;22716;51.556;5.080;2024-03-23T07:15:09;100325.81;;;7.00;100.00
36748;BME280;22716;51.556;5.080;2024-03-23T07:17:36;100335.41;;;6.98;100.00
36748;BME280;22716;51.556;5.080;2024-03-23T07:20:02;100331.06;;;6.95;100.00
36748;BME280;22716;51.556;5.080;2024-03-23T07:22:29;100325.00;;;6.95;100.00
36748;BME280;22716;51.556;5.080;2024-03-23T07:24:55;100331.88;;;7.09;100.00
36748;BME280;22716;51.556;5.080;2024-03-23T07:27:21;100332.69;;;7.20;100.00
36748;BME280;22716;51.556;5.080;2024-03-23T07:29:49;100326.56;;;7.27;100.00
36748;BME280;22716;51.556;5.080;2024-03-23T07:32:16;100336.91;;;7.44;100.00
36748;BME280;22716;51.556;5.080;2024-03-23T07:34:42;100331.66;;;7.50;100.00
36748;BME280;22716;51.556;5.080;2024-03-23T07:37:09;100329.03;;;7.52;100.00
36748;BME280;22716;51.556;5.080;2024-03-23T07:39:35;100325.53;;;7.57;100.00
36748;BME280;22716;51.556;5.080;2024-03-23T07:42:02;100323.72;;;7.64;100.00
36748;BME280;22716;51.556;5.080;2024-03-23T07:44:27;100328.94;;;7.68;100.00
36748;BME280;22716;51.556;5.080;2024-03-23T07:46:54;100327.97;;;7.80;100.00
36748;BME280;22716;51.556;5.080;2024-03-23T07:49:21;100329.38;;;8.20;100.00
36748;BME280;22716;51.556;5.080;2024-03-23T07:51:47;100319.81;;;8.19;100.00
36748;BME280;22716;51.556;5.080;2024-03-23T07:54:13;100290.59;;;7.78;100.00
36748;BME280;22716;51.556;5.080;2024-03-23T07:56:39;100322.66;;;7.94;100.00
36748;BME280;22716;51.556;5.080;2024-03-23T07:59:05;100318.25;;;8.00;100.00
36748;BME280;22716;51.556;5.080;2024-03-23T08:01:31;100325.19;;;8.03;100.00
36748;BME280;22716;51.556;5.080;2024-03-23T08:03:57;100319.97;;;8.04;100.00
36748;BME280;22716;51.556;5.080;2024-03-23T08:06:25;100308.59;;;8.13;100.00
36748;BME280;22716;51.556;5.080;2024-03-23T08:08:52;100316.44;;;8.10;100.00
36748;BME280;22716;51.556;5.080;2024-03-23T08:11:24;100312.94;;;8.12;100.00
36748;BME280;22716;51.556;5.080;2024-03-23T08:13:50;100322.38;;;8.22;100.00
36748;BME280;22716;51.556;5.080;2024-03-23T08:16:17;100322.53;;;8.09;100.00
36748;BME280;22716;51.556;5.080;2024-03-23T08:18:43;100332.09;;;8.05;100.00
36748;BME280;22716;51.556;5.080;2024-03-23T08:21:09;100323.47;;;7.99;100.00
36748;BME280;22716;51.556;5.080;2024-03-23T08:23:36;100319.94;;;8.07;100.00
36748;BME280;22716;51.556;5.080;2024-03-23T08:26:04;100313.78;;;8.11;100.00
36748;BME280;22716;51.556;5.080;2024-03-23T08:28:30;100323.44;;;8.02;100.00
36748;BME280;22716;51.556;5.080;2024-03-23T08:31:00;100316.44;;;8.10;100.00
36748;BME280;22716;51.556;5.080;2024-03-23T08:33:26;100314.75;;;8.04;100.00
36748;BME280;22716;51.556;5.080;2024-03-23T08:35:54;100325.28;;;7.90;100.00
36748;BME280;22716;51.556;5.080;2024-03-23T08:38:20;100321.88;;;7.81;100.00
36748;BME280;22716;51.556;5.080;2024-03-23T08:40:55;100322.78;;;7.75;100.00
36748;BME280;22716;51.556;5.080;2024-03-23T08:43:21;100334.22;;;7.56;100.00
36748;BME280;22716;51.556;5.080;2024-03-23T08:45:47;100344.69;;;7.49;100.00
36748;BME280;22716;51.556;5.080;2024-03-23T08:48:13;100342.16;;;7.35;100.00
36748;BME280;22716;51.556;5.080;2024-03-23T08:50:40;100344.78;;;7.29;100.00
36748;BME280;22716;51.556;5.080;2024-03-23T08:53:05;100342.25;;;7.18;100.00
36748;BME280;22716;51.556;5.080;2024-03-23T08:55:32;100337.94;;;7.13;100.00
36748;BME280;22716;51.556;5.080;2024-03-23T08:57:59;100339.69;;;7.05;100.00
36748;BME280;22716;51.556;5.080;2024-03-23T09:00:26;100336.25;;;7.04;100.00
36748;BME280;22716;51.556;5.080;2024-03-23T09:02:51;100331.84;;;7.18;100.00
36748;BME280;22716;51.556;5.080;2024-03-23T09:05:19;100324.81;;;7.29;100.00
36748;BME280;22716;51.556;5.080;2024-03-23T09:07:44;100323.03;;;7.38;100.00
36748;BME280;22716;51.556;5.080;2024-03-23T09:10:11;100324.69;;;7.52;100.00
36748;BME280;22716;51.556;5.080;2024-03-23T09:12:36;100320.25;;;7.65;100.00
36748;BME280;22716;51.556;5.080;2024-03-23T09:15:05;100319.28;;;7.78;100.00
36748;BME280;22716;51.556;5.080;2024-03-23T09:17:31;100317.47;;;7.92;100.00
36748;BME280;22716;51.556;5.080;2024-03-23T09:19:57;100319.16;;;7.93;100.00
36748;BME280;22716;51.556;5.080;2024-03-23T09:22:23;100320.81;;;8.05;100.00
36748;BME280;22716;51.556;5.080;2024-03-23T09:24:49;100304.16;;;8.19;100.00
36748;BME280;22716;51.556;5.080;2024-03-23T09:27:15;100315.31;;;8.38;100.00
36748;BME280;22716;51.556;5.080;2024-03-23T09:29:42;100305.69;;;8.44;100.00
36748;BME280;22716;51.556;5.080;2024-03-23T09:32:08;100313.41;;;8.55;100.00
36748;BME280;22716;51.556;5.080;2024-03-23T09:34:35;100305.44;;;8.69;100.00
36748;BME280;22716;51.556;5.080;2024-03-23T09:37:01;100306.38;;;8.60;100.00
36748;BME280;22716;51.556;5.080;2024-03-23T09:39:27;100315.91;;;8.66;100.00
36748;BME280;22716;51.556;5.080;2024-03-23T09:41:56;100316.75;;;8.68;100.00
36748;BME280;22716;51.556;5.080;2024-03-23T09:44:24;100314.97;;;8.70;100.00
36748;BME280;22716;51.556;5.080;2024-03-23T09:46:51;100314.19;;;8.60;100.00
36748;BME280;22716;51.556;5.080;2024-03-23T09:49:19;100313.31;;;8.66;100.00
36748;BME280;22716;51.556;5.080;2024-03-23T09:51:45;100310.63;;;8.72;100.00
36748;BME280;22716;51.556;5.080;2024-03-23T09:54:12;100320.13;;;8.77;100.00
36748;BME280;22716;51.556;5.080;2024-03-23T09:56:37;100303.66;;;8.71;100.00
36748;BME280;22716;51.556;5.080;2024-03-23T09:59:04;100305.28;;;8.78;100.00
36748;BME280;22716;51.556;5.080;2024-03-23T10:01:30;100302.53;;;8.90;100.00
36748;BME280;22716;51.556;5.080;2024-03-23T10:03:56;100311.81;;;9.14;100.00
36748;BME280;22716;51.556;5.080;2024-03-23T10:06:23;100316.03;;;9.25;100.00
36748;BME280;22716;51.556;5.080;2024-03-23T10:08:51;100310.03;;;9.17;100.00
36748;BME280;22716;51.556;5.080;2024-03-23T10:11:18;100319.94;;;8.94;100.00
36748;BME280;22716;51.556;5.080;2024-03-23T10:13:46;100321.88;;;8.75;100.00
36748;BME280;22716;51.556;5.080;2024-03-23T10:16:20;100345.63;;;8.54;100.00
36748;BME280;22716;51.556;5.080;2024-03-23T10:18:47;100342.44;;;8.22;100.00
36748;BME280;22716;51.556;5.080;2024-03-23T10:21:15;100311.34;;;7.93;100.00
36748;BME280;22716;51.556;5.080;2024-03-23T10:23:44;100318.44;;;7.73;100.00
36748;BME280;22716;51.556;5.080;2024-03-23T10:26:17;100302.88;;;7.61;100.00
36748;BME280;22716;51.556;5.080;2024-03-23T10:28:51;100315.94;;;7.61;100.00
36748;BME280;22716;51.556;5.080;2024-03-23T10:31:17;100318.56;;;7.59;100.00
36748;BME280;22716;51.556;5.080;2024-03-23T10:33:44;100319.38;;;7.66;100.00
36748;BME280;22716;51.556;5.080;2024-03-23T10:36:11;100314.97;;;7.72;100.00
36748;BME280;22716;51.556;5.080;2024-03-23T10:38:39;100312.38;;;7.74;100.00
36748;BME280;22716;51.556;5.080;2024-03-23T10:41:07;100314.97;;;7.77;100.00
36748;BME280;22716;51.556;5.080;2024-03-23T10:43:35;100308.78;;;7.87;100.00
36748;BME280;22716;51.556;5.080;2024-03-23T10:46:02;100307.78;;;8.02;100.00
36748;BME280;22716;51.556;5.080;2024-03-23T10:48:28;100258.31;;;7.94;100.00
36748;BME280;22716;51.556;5.080;2024-03-23T10:50:54;100300.56;;;8.35;100.00
36748;BME280;22716;51.556;5.080;2024-03-23T10:53:21;100294.31;;;8.49;100.00
36748;BME280;22716;51.556;5.080;2024-03-23T10:55:48;100288.84;;;8.71;100.00
36748;BME280;22716;51.556;5.080;2024-03-23T10:58:17;100286.03;;;8.88;100.00
36748;BME280;22716;51.556;5.080;2024-03-23T11:00:44;100307.63;;;9.04;100.00
36748;BME280;22716;51.556;5.080;2024-03-23T11:03:29;100297.97;;;9.07;100.00
36748;BME280;22716;51.556;5.080;2024-03-23T11:05:55;100309.59;;;8.85;100.00
36748;BME280;22716;51.556;5.080;2024-03-23T11:08:30;100306.22;;;8.74;100.00
36748;BME280;22716;51.556;5.080;2024-03-23T11:11:11;100305.56;;;8.55;100.00
36748;BME280;22716;51.556;5.080;2024-03-23T11:13:39;100313.38;;;8.60;100.00
36748;BME280;22716;51.556;5.080;2024-03-23T11:16:13;100311.50;;;8.69;100.00
36748;BME280;22716;51.556;5.080;2024-03-23T11:18:42;100302.78;;;8.70;100.00
36748;BME280;22716;51.556;5.080;2024-03-23T11:21:09;100301.88;;;8.74;100.00
36748;BME280;22716;51.556;5.080;2024-03-23T11:23:35;100310.53;;;8.79;100.00
36748;BME280;22716;51.556;5.080;2024-03-23T11:26:01;100303.56;;;8.80;100.00
36748;BME280;22716;51.556;5.080;2024-03-23T11:28:30;100295.63;;;8.89;100.00
36748;BME280;22716;51.556;5.080;2024-03-23T11:30:57;100300.69;;;8.99;100.00
36748;BME280;22716;51.556;5.080;2024-03-23T11:33:24;100295.34;;;9.07;100.00
36748;BME280;22716;51.556;5.080;2024-03-23T11:35:49;100289.44;;;8.93;100.00
36748;BME280;22716;51.556;5.080;2024-03-23T11:38:18;100298.22;;;8.89;100.00
36748;BME280;22716;51.556;5.080;2024-03-23T11:40:45;100303.44;;;8.87;100.00
36748;BME280;22716;51.556;5.080;2024-03-23T11:43:13;100303.50;;;8.86;100.00
36748;BME280;22716;51.556;5.080;2024-03-23T11:45:41;100293.97;;;8.80;100.00
36748;BME280;22716;51.556;5.080;2024-03-23T11:48:11;100293.03;;;8.84;100.00
36748;BME280;22716;51.556;5.080;2024-03-23T11:50:38;100303.59;;;8.77;100.00
36748;BME280;22716;51.556;5.080;2024-03-23T11:53:08;100297.44;;;8.81;100.00
36748;BME280;22716;51.556;5.080;2024-03-23T11:55:42;100296.34;;;9.00;100.00
36748;BME280;22716;51.556;5.080;2024-03-23T11:58:08;100294.28;;;9.22;100.00
36748;BME280;22716;51.556;5.080;2024-03-23T12:00:34;100280.97;;;9.40;100.00
36748;BME280;22716;51.556;5.080;2024-03-23T12:03:01;100286.94;;;9.49;100.00
36748;BME280;22716;51.556;5.080;2024-03-23T12:05:28;100277.38;;;9.47;100.00
36748;BME280;22716;51.556;5.080;2024-03-23T12:07:55;100283.78;;;9.25;100.00
36748;BME280;22716;51.556;5.080;2024-03-23T12:10:21;100289.28;;;9.05;100.00
36748;BME280;22716;51.556;5.080;2024-03-23T12:13:00;100288.72;;;8.83;100.00
36748;BME280;22716;51.556;5.080;2024-03-23T12:15:25;100284.69;;;8.55;100.00
36748;BME280;22716;51.556;5.080;2024-03-23T12:18:06;100308.34;;;8.38;100.00
36748;BME280;22716;51.556;5.080;2024-03-23T12:20:33;100297.19;;;8.20;100.00
36748;BME280;22716;51.556;5.080;2024-03-23T12:23:05;100269.38;;;8.17;100.00
36748;BME280;22716;51.556;5.080;2024-03-23T12:25:32;100283.19;;;8.31;100.00
36748;BME280;22716;51.556;5.080;2024-03-23T12:27:59;100275.38;;;8.28;100.00
36748;BME280;22716;51.556;5.080;2024-03-23T12:30:25;100274.59;;;8.17;100.00
36748;BME280;22716;51.556;5.080;2024-03-23T12:32:51;100252.09;;;8.07;100.00
36748;BME280;22716;51.556;5.080;2024-03-23T12:35:17;100268.59;;;8.09;100.00
36748;BME280;22716;51.556;5.080;2024-03-23T12:37:45;100248.50;;;8.17;100.00
36748;BME280;22716;51.556;5.080;2024-03-23T12:40:11;100264.97;;;8.22;100.00
36748;BME280;22716;51.556;5.080;2024-03-23T12:42:37;100261.50;;;8.23;100.00
36748;BME280;22716;51.556;5.080;2024-03-23T12:45:03;100268.38;;;8.35;100.00
36748;BME280;22716;51.556;5.080;2024-03-23T12:47:30;100259.63;;;8.39;100.00
36748;BME280;22716;51.556;5.080;2024-03-23T12:49:56;100260.44;;;8.42;100.00
36748;BME280;22716;51.556;5.080;2024-03-23T12:52:22;100264.47;;;8.69;100.00
36748;BME280;22716;51.556;5.080;2024-03-23T12:54:55;100239.28;;;8.68;100.00
36748;BME280;22716;51.556;5.080;2024-03-23T12:57:23;100258.34;;;8.73;100.00
36748;BME280;22716;51.556;5.080;2024-03-23T12:59:49;100270.56;;;8.71;100.00
36748;BME280;22716;51.556;5.080;2024-03-23T13:02:18;100255.78;;;8.72;100.00
36748;BME280;22716;51.556;5.080;2024-03-23T13:04:45;100249.78;;;8.61;100.00
36748;BME280;22716;51.556;5.080;2024-03-23T13:07:11;100256.06;;;8.48;100.00
36748;BME280;22716;51.556;5.080;2024-03-23T13:09:38;100251.91;;;8.28;100.00
36748;BME280;22716;51.556;5.080;2024-03-23T13:12:06;100257.13;;;8.30;100.00
36748;BME280;22716;51.556;5.080;2024-03-23T13:14:32;100257.16;;;8.19;100.00
36748;BME280;22716;51.556;5.080;2024-03-23T13:16:59;100256.28;;;8.23;100.00
36748;BME280;22716;51.556;5.080;2024-03-23T13:19:24;100242.38;;;8.21;100.00
36748;BME280;22716;51.556;5.080;2024-03-23T13:21:53;100238.13;;;8.13;100.00
36748;BME280;22716;51.556;5.080;2024-03-23T13:24:21;100240.72;;;8.14;100.00
36748;BME280;22716;51.556;5.080;2024-03-23T13:26:49;100252.75;;;8.33;100.00
36748;BME280;22716;51.556;5.080;2024-03-23T13:29:16;100245.69;;;8.40;100.00
36748;BME280;22716;51.556;5.080;2024-03-23T13:31:42;100239.53;;;8.45;100.00
36748;BME280;22716;51.556;5.080;2024-03-23T13:34:08;100237.78;;;8.48;100.00
36748;BME280;22716;51.556;5.080;2024-03-23T13:36:35;100236.84;;;8.52;100.00
36748;BME280;22716;51.556;5.080;2024-03-23T13:39:01;100249.84;;;8.56;100.00
36748;BME280;22716;51.556;5.080;2024-03-23T13:41:30;100223.88;;;8.42;100.00